Time;durP1;ratioP1;P1;durP2;ratioP2;P2;SDS_P1;SDS_P2;PMS_P1;PMS_P2;Temp;Humidity;BMP_temperature;BMP_pressure;BME280_temperature;BME280_humidity;BME280_pressure;Samples;Min_cycle;Max_cycle;Signal;HPM_P1;HPM_P2
2023/08/27 00:01:53;;;;;;;5.15;3.67;;;14.30;99.90;;;;;;5038575;28;20033;-70
2023/08/27 00:04:19;;;;;;;7.65;3.60;;;14.30;99.90;;;;;;5022164;28;20043;-70
2023/08/27 00:06:45;;;;;;;6.15;3.33;;;14.30;99.90;;;;;;5005674;28;20045;-70
2023/08/27 00:09:14;;;;;;;5.75;3.92;;;14.40;99.90;;;;;;5021669;28;20056;-71
2023/08/27 00:11:40;;;;;;;5.65;3.50;;;14.40;99.90;;;;;;5021753;28;20159;-69
2023/08/27 00:14:06;;;;;;;7.53;5.35;;;14.40;99.90;;;;;;5021952;28;20049;-70
2023/08/27 00:16:32;;;;;;;6.85;4.05;;;14.40;99.90;;;;;;5038609;28;20436;-67
2023/08/27 00:19:02;;;;;;;6.20;3.80;;;14.40;99.90;;;;;;5004959;28;20045;-63
2023/08/27 00:21:31;;;;;;;7.93;4.82;;;14.40;99.90;;;;;;5007188;28;20051;-63
2023/08/27 00:23:57;;;;;;;8.55;6.55;;;14.40;99.90;;;;;;5038036;28;20052;-63
2023/08/27 00:26:23;;;;;;;9.52;6.57;;;14.30;99.90;;;;;;5021253;28;20049;-63
2023/08/27 00:28:49;;;;;;;6.22;4.40;;;14.20;99.90;;;;;;5055729;28;20145;-63
2023/08/27 00:31:15;;;;;;;7.40;5.30;;;14.10;99.90;;;;;;5054578;28;20048;-64
2023/08/27 00:33:41;;;;;;;6.35;4.30;;;14.10;99.90;;;;;;5021278;28;20037;-64
2023/08/27 00:36:07;;;;;;;7.00;5.53;;;14.10;99.90;;;;;;5021117;28;20044;-64
2023/08/27 00:38:32;;;;;;;5.60;3.80;;;14.20;99.90;;;;;;5021300;28;20040;-63
2023/08/27 00:41:01;;;;;;;6.50;4.43;;;14.20;99.90;;;;;;5037459;28;20064;-63
2023/08/27 00:43:30;;;;;;;5.75;3.42;;;14.20;99.90;;;;;;5037636;28;20052;-63
2023/08/27 00:45:56;;;;;;;5.90;3.92;;;14.20;99.90;;;;;;5021149;28;20037;-64
2023/08/27 00:48:22;;;;;;;6.20;3.65;;;14.20;99.90;;;;;;5004575;28;20170;-63
2023/08/27 00:50:48;;;;;;;8.32;3.70;;;14.20;99.90;;;;;;5037195;28;20052;-63
2023/08/27 00:53:15;;;;;;;6.13;3.78;;;14.20;99.90;;;;;;5021186;28;20489;-63
2023/08/27 00:55:41;;;;;;;6.68;4.00;;;14.20;99.90;;;;;;5037314;28;20059;-64
2023/08/27 00:58:07;;;;;;;6.18;4.15;;;14.20;99.90;;;;;;5004572;28;20037;-64
2023/08/27 01:00:33;;;;;;;8.38;6.28;;;14.20;99.90;;;;;;5053175;28;20044;-63
2023/08/27 01:03:04;;;;;;;6.82;3.75;;;14.10;99.90;;;;;;5037016;28;20045;-64
2023/08/27 01:05:30;;;;;;;7.38;3.90;;;14.10;99.90;;;;;;5020986;28;20033;-63
2023/08/27 01:08:18;;;;;;;7.47;4.45;;;14.00;99.90;;;;;;5036886;28;20409;-64
2023/08/27 01:10:54;;;;;;;9.23;5.78;;;14.00;99.90;;;;;;5036753;28;20041;-64
2023/08/27 01:13:44;;;;;;;9.18;5.75;;;14.00;99.90;;;;;;5036813;28;20163;-64
2023/08/27 01:16:11;;;;;;;7.07;5.15;;;14.00;99.90;;;;;;5037180;28;20049;-63
2023/08/27 01:18:38;;;;;;;7.53;5.20;;;14.00;99.90;;;;;;5036654;28;20048;-64
2023/08/27 01:21:21;;;;;;;7.93;5.45;;;13.90;99.90;;;;;;5054405;28;20095;-64
2023/08/27 01:23:47;;;;;;;10.15;7.00;;;13.90;99.90;;;;;;5036932;28;20037;-64
2023/08/27 01:26:58;;;;;;;13.40;9.55;;;13.90;99.90;;;;;;5020589;28;20043;-64
2023/08/27 01:29:26;;;;;;;9.85;6.22;;;13.90;99.90;;;;;;5036806;28;20064;-70
2023/08/27 01:32:35;;;;;;;8.98;5.60;;;13.80;99.90;;;;;;5037220;28;20047;-69
2023/08/27 01:35:03;;;;;;;7.00;4.20;;;13.80;99.90;;;;;;5054785;28;20539;-70
2023/08/27 01:37:29;;;;;;;10.10;8.30;;;13.80;99.90;;;;;;5054499;28;20145;-70
2023/08/27 01:40:05;;;;;;;10.32;8.35;;;13.80;99.90;;;;;;5036739;28;20033;-70
2023/08/27 01:42:35;;;;;;;10.30;7.65;;;13.90;99.90;;;;;;5036568;28;20041;-70
2023/08/27 01:45:03;;;;;;;10.98;9.35;;;13.80;99.90;;;;;;5036321;28;20040;-71
2023/08/27 01:47:30;;;;;;;11.32;9.52;;;13.80;99.90;;;;;;5036919;28;20044;-71
2023/08/27 01:49:56;;;;;;;12.45;11.07;;;13.80;99.90;;;;;;5020416;28;20055;-70
2023/08/27 01:52:22;;;;;;;13.05;11.68;;;13.70;99.90;;;;;;5019980;28;20508;-71
2023/08/27 01:54:51;;;;;;;7.68;6.35;;;13.70;99.90;;;;;;5036726;28;20041;-71
2023/08/27 01:57:17;;;;;;;9.68;7.97;;;13.70;99.90;;;;;;5036443;28;20132;-70
2023/08/27 01:59:43;;;;;;;9.90;8.68;;;13.70;99.90;;;;;;5019922;28;20075;-70
2023/08/27 02:02:09;;;;;;;9.02;8.00;;;13.80;99.90;;;;;;5036420;28;20041;-70
2023/08/27 02:04:35;;;;;;;9.32;8.32;;;13.80;99.90;;;;;;5036240;28;20125;-70
2023/08/27 02:07:01;;;;;;;10.75;8.60;;;13.80;99.90;;;;;;5036158;28;20076;-70
2023/08/27 02:09:27;;;;;;;10.90;7.93;;;13.80;99.90;;;;;;5019625;28;20057;-72
2023/08/27 02:11:52;;;;;;;8.57;7.13;;;13.90;99.90;;;;;;5035568;28;20047;-70
2023/08/27 02:14:19;;;;;;;10.98;7.45;;;13.90;99.90;;;;;;5035960;28;20049;-69
2023/08/27 02:16:45;;;;;;;9.60;7.60;;;13.90;99.90;;;;;;5036339;28;20076;-69
2023/08/27 02:19:10;;;;;;;7.18;5.13;;;13.80;99.90;;;;;;5035994;28;20087;-71
2023/08/27 02:21:39;;;;;;;7.72;4.78;;;13.80;99.90;;;;;;5035880;28;20444;-69
2023/08/27 02:24:05;;;;;;;7.45;5.05;;;13.90;99.90;;;;;;5019811;28;20047;-70
2023/08/27 02:26:31;;;;;;;11.65;8.25;;;13.90;99.90;;;;;;5036227;28;20033;-71
2023/08/27 02:28:56;;;;;;;9.70;5.03;;;13.90;99.90;;;;;;5035778;28;20134;-71
2023/08/27 02:31:22;;;;;;;8.00;6.07;;;13.90;99.90;;;;;;4987121;28;20041;-70
2023/08/27 02:33:48;;;;;;;6.10;4.10;;;13.90;99.90;;;;;;5019580;28;20040;-70
2023/08/27 02:36:14;;;;;;;7.25;4.30;;;13.90;99.90;;;;;;5019399;28;20033;-70
2023/08/27 02:38:40;;;;;;;7.97;6.70;;;14.00;99.90;;;;;;5036152;28;20045;-70
2023/08/27 02:41:05;;;;;;;8.88;6.78;;;14.00;99.90;;;;;;5035611;28;20041;-71
2023/08/27 02:43:31;;;;;;;7.13;6.13;;;13.90;99.90;;;;;;5035733;28;20049;-70
2023/08/27 02:45:57;;;;;;;8.10;6.60;;;13.80;99.90;;;;;;5019134;28;20044;-69
2023/08/27 02:48:23;;;;;;;5.32;3.95;;;13.80;99.90;;;;;;5052197;28;20087;-70
2023/08/27 02:50:52;;;;;;;7.75;6.55;;;13.70;99.90;;;;;;5035356;28;20079;-70
2023/08/27 02:53:18;;;;;;;9.48;6.93;;;13.70;99.90;;;;;;4987678;28;20512;-70
2023/08/27 02:55:45;;;;;;;8.48;7.35;;;13.70;99.90;;;;;;5053532;28;20041;-70
2023/08/27 02:58:11;;;;;;;10.13;8.90;;;13.70;99.90;;;;;;5019076;28;20045;-70
2023/08/27 03:00:40;;;;;;;9.43;8.43;;;13.60;99.90;;;;;;5035701;28;20040;-70
2023/08/27 03:03:07;;;;;;;6.50;4.72;;;13.60;99.90;;;;;;5035338;28;20049;-69
2023/08/27 03:05:33;;;;;;;9.60;7.38;;;13.50;99.90;;;;;;5035487;28;20044;-71
2023/08/27 03:08:00;;;;;;;11.73;10.52;;;13.50;99.90;;;;;;5035146;28;20092;-70
2023/08/27 03:10:26;;;;;;;7.55;6.22;;;13.50;99.90;;;;;;5002912;28;20033;-71
2023/08/27 03:12:52;;;;;;;10.85;9.52;;;13.40;99.90;;;;;;5035412;28;20068;-70
2023/08/27 03:15:18;;;;;;;6.80;5.78;;;13.30;99.90;;;;;;5035255;28;20475;-71
2023/08/27 03:17:43;;;;;;;5.93;4.57;;;13.30;99.90;;;;;;5035108;28;20128;-71
2023/08/27 03:20:10;;;;;;;5.97;4.20;;;13.30;99.90;;;;;;5035078;28;20037;-70
2023/08/27 03:22:36;;;;;;;7.65;5.50;;;13.40;99.90;;;;;;5002948;28;20041;-70
2023/08/27 03:25:03;;;;;;;10.18;7.85;;;13.40;99.90;;;;;;5039075;28;20041;-69
2023/08/27 03:27:29;;;;;;;6.00;4.60;;;13.40;99.90;;;;;;5006485;28;20033;-70
2023/08/27 03:29:55;;;;;;;7.28;4.65;;;13.40;99.90;;;;;;5055826;28;20497;-70
2023/08/27 03:32:24;;;;;;;7.25;4.50;;;13.40;99.90;;;;;;5057174;28;20102;-70
2023/08/27 03:34:50;;;;;;;7.53;4.80;;;13.40;99.90;;;;;;5039346;28;20041;-70
2023/08/27 03:37:19;;;;;;;6.20;4.00;;;13.40;99.90;;;;;;5038750;28;20041;-70
2023/08/27 03:39:45;;;;;;;7.40;4.95;;;13.40;99.90;;;;;;5022765;28;20132;-70
2023/08/27 03:42:10;;;;;;;7.30;5.82;;;13.50;99.90;;;;;;5038711;28;20087;-71
2023/08/27 03:44:36;;;;;;;7.57;5.32;;;13.50;99.90;;;;;;5038732;28;20386;-70
2023/08/27 03:47:04;;;;;;;8.30;5.93;;;13.50;99.90;;;;;;5022309;28;20033;-69
2023/08/27 03:49:29;;;;;;;11.07;8.23;;;13.60;99.90;;;;;;5038534;28;20037;-70
2023/08/27 03:51:55;;;;;;;7.32;5.00;;;13.60;99.90;;;;;;5022046;28;20068;-70
2023/08/27 03:54:21;;;;;;;6.70;4.57;;;13.60;99.90;;;;;;5038569;28;20045;-70
2023/08/27 03:56:47;;;;;;;8.73;7.35;;;13.60;99.90;;;;;;5038740;28;20045;-69
2023/08/27 03:59:12;;;;;;;8.23;5.57;;;13.60;99.90;;;;;;5038595;28;20049;-70
2023/08/27 04:01:38;;;;;;;9.10;7.05;;;13.60;99.90;;;;;;5038359;28;20041;-70
2023/08/27 04:04:04;;;;;;;9.15;8.15;;;13.70;99.90;;;;;;5021981;28;20044;-70
2023/08/27 04:06:31;;;;;;;7.05;5.20;;;13.70;99.90;;;;;;5021825;28;20041;-71
2023/08/27 04:08:57;;;;;;;6.03;4.38;;;13.70;99.90;;;;;;5038042;28;20056;-70
2023/08/27 04:11:23;;;;;;;6.32;4.07;;;13.70;99.90;;;;;;5038231;28;20127;-71
2023/08/27 04:13:49;;;;;;;6.70;4.57;;;13.70;99.90;;;;;;5038421;28;20099;-70
2023/08/27 04:16:15;;;;;;;8.20;5.85;;;13.80;99.90;;;;;;5055019;28;20037;-70
2023/08/27 04:18:41;;;;;;;8.60;6.57;;;13.70;99.90;;;;;;5038308;28;20047;-68
2023/08/27 04:21:07;;;;;;;9.15;7.18;;;13.80;99.90;;;;;;5037939;28;20076;-70
2023/08/27 04:23:33;;;;;;;7.90;6.00;;;13.70;99.90;;;;;;5005248;28;20068;-69
2023/08/27 04:25:59;;;;;;;12.02;10.73;;;13.70;99.90;;;;;;5037775;28;20086;-71
2023/08/27 04:28:24;;;;;;;17.38;14.13;;;13.70;99.90;;;;;;5021646;28;20044;-70
2023/08/27 04:30:50;;;;;;;7.57;5.13;;;13.70;99.90;;;;;;5037982;28;20044;-70
2023/08/27 04:33:17;;;;;;;6.75;5.00;;;13.60;99.90;;;;;;5037641;28;20044;-69
2023/08/27 04:35:44;;;;;;;10.50;9.43;;;13.50;99.90;;;;;;5036688;28;20041;-69
2023/08/27 04:38:10;;;;;;;8.30;6.70;;;13.60;99.90;;;;;;5038040;28;20063;-69
2023/08/27 04:40:36;;;;;;;8.57;6.97;;;13.60;99.90;;;;;;5055848;28;20047;-70
2023/08/27 04:43:03;;;;;;;9.23;7.47;;;13.60;99.90;;;;;;5021240;28;20400;-71
2023/08/27 04:45:28;;;;;;;10.30;9.25;;;13.60;99.90;;;;;;5054105;28;20036;-71
2023/08/27 04:47:54;;;;;;;15.70;13.52;;;13.60;99.90;;;;;;5037609;28;20128;-70
2023/08/27 04:50:20;;;;;;;10.10;8.95;;;13.50;99.90;;;;;;5037446;28;20044;-70
2023/08/27 04:52:47;;;;;;;9.60;8.07;;;13.50;99.90;;;;;;5037659;28;20044;-70
2023/08/27 04:55:13;;;;;;;10.75;9.50;;;13.50;99.90;;;;;;5004582;28;20037;-69
2023/08/27 04:57:39;;;;;;;12.73;10.48;;;13.50;99.90;;;;;;5021342;28;20132;-70
2023/08/27 05:00:13;;;;;;;10.73;7.55;;;13.50;99.90;;;;;;5037298;28;20084;-70
2023/08/27 05:02:39;;;;;;;10.35;7.30;;;13.40;99.90;;;;;;5037213;28;20063;-70
2023/08/27 05:05:06;;;;;;;11.10;7.38;;;13.50;99.90;;;;;;5055979;28;20079;-71
2023/08/27 05:07:35;;;;;;;10.85;7.70;;;13.50;99.90;;;;;;5036972;28;20048;-70
2023/08/27 05:10:01;;;;;;;8.75;7.45;;;13.60;99.90;;;;;;5037466;28;20487;-69
2023/08/27 05:12:48;;;;;;;11.07;8.15;;;13.70;99.90;;;;;;5037360;28;20080;-69
2023/08/27 05:15:16;;;;;;;12.77;9.77;;;13.70;99.90;;;;;;5054727;28;20088;-70
2023/08/27 05:17:42;;;;;;;11.57;9.45;;;13.70;99.90;;;;;;5020573;28;20049;-70
2023/08/27 05:20:09;;;;;;;11.10;9.90;;;13.80;99.90;;;;;;5036972;28;20044;-70
2023/08/27 05:22:34;;;;;;;13.45;10.32;;;13.80;99.90;;;;;;5037117;28;20515;-68
2023/08/27 05:25:00;;;;;;;12.48;11.18;;;13.80;99.90;;;;;;5020716;28;20041;-69
2023/08/27 05:27:26;;;;;;;16.33;13.82;;;13.90;99.90;;;;;;5020546;28;20037;-70
2023/08/27 05:29:52;;;;;;;13.75;10.75;;;14.00;99.90;;;;;;5036939;28;20045;-71
2023/08/27 05:32:17;;;;;;;12.48;10.93;;;13.90;99.90;;;;;;5036691;28;20053;-69
2023/08/27 05:34:43;;;;;;;13.43;10.55;;;14.00;99.90;;;;;;5036564;28;20481;-70
2023/08/27 05:37:16;;;;;;;13.48;11.27;;;14.00;99.90;;;;;;5036618;28;20453;-72
2023/08/27 05:39:41;;;;;;;14.02;12.25;;;14.10;99.90;;;;;;5020139;28;20105;-70
2023/08/27 05:42:13;;;;;;;14.65;11.60;;;14.10;99.90;;;;;;5003583;28;20537;-70
2023/08/27 05:44:39;;;;;;;14.48;12.15;;;14.20;99.90;;;;;;5020275;28;20037;-69
2023/08/27 05:47:04;;;;;;;13.30;11.57;;;14.20;99.90;;;;;;5036402;28;20037;-72
2023/08/27 05:49:30;;;;;;;15.32;13.27;;;14.30;99.90;;;;;;5053040;28;20033;-69
2023/08/27 05:51:56;;;;;;;13.90;11.70;;;14.30;99.90;;;;;;5019656;28;20053;-62
2023/08/27 05:54:22;;;;;;;14.55;12.43;;;14.30;99.90;;;;;;5019576;28;20056;-63
2023/08/27 05:56:53;;;;;;;12.55;10.95;;;14.40;99.90;;;;;;5036097;28;20040;-64
2023/08/27 05:59:18;;;;;;;14.03;12.57;;;14.40;99.90;;;;;;5053818;28;20045;-63
2023/08/27 06:01:44;;;;;;;13.32;10.40;;;14.50;99.90;;;;;;5053587;28;20111;-63
2023/08/27 06:04:16;;;;;;;13.48;10.30;;;14.50;99.90;;;;;;5052882;28;20068;-63
2023/08/27 06:06:42;;;;;;;12.68;11.18;;;14.60;99.90;;;;;;5036131;28;20095;-63
2023/08/27 06:09:08;;;;;;;11.77;10.57;;;14.60;99.90;;;;;;5052264;28;20055;-64
2023/08/27 06:11:34;;;;;;;15.38;13.13;;;14.60;99.90;;;;;;5019413;28;20049;-63
2023/08/27 06:14:00;;;;;;;12.20;10.90;;;14.50;99.90;;;;;;5019557;28;20374;-63
2023/08/27 06:16:26;;;;;;;12.65;9.25;;;14.50;99.90;;;;;;5035733;28;20052;-64
2023/08/27 06:18:52;;;;;;;10.35;8.20;;;14.50;99.90;;;;;;5035654;28;20072;-63
2023/08/27 06:21:18;;;;;;;10.65;7.95;;;14.50;99.90;;;;;;5035780;28;20047;-64
2023/08/27 06:23:43;;;;;;;11.65;8.20;;;14.60;99.90;;;;;;5035819;28;20045;-63
2023/08/27 06:26:09;;;;;;;11.23;8.10;;;14.60;99.90;;;;;;5019412;28;20041;-63
2023/08/27 06:28:35;;;;;;;11.90;8.50;;;14.60;99.90;;;;;;5053236;28;20044;-63
2023/08/27 06:31:01;;;;;;;11.13;8.60;;;14.60;99.90;;;;;;5035473;28;20512;-64
2023/08/27 06:33:38;;;;;;;12.05;9.43;;;14.60;99.90;;;;;;5035683;28;20115;-64
2023/08/27 06:36:08;;;;;;;13.05;9.55;;;14.60;99.90;;;;;;5019920;28;20045;-65
2023/08/27 06:38:33;;;;;;;11.15;8.18;;;14.60;99.90;;;;;;5019942;28;20142;-69
2023/08/27 06:40:59;;;;;;;11.63;9.45;;;14.60;99.90;;;;;;5035339;28;20072;-69
2023/08/27 06:43:25;;;;;;;12.90;8.88;;;14.60;99.90;;;;;;5035693;28;20040;-70
2023/08/27 06:45:51;;;;;;;11.02;7.63;;;14.60;99.90;;;;;;5019042;28;20044;-70
2023/08/27 06:48:26;;;;;;;10.23;7.45;;;14.60;99.90;;;;;;5035583;28;20033;-66
2023/08/27 06:50:52;;;;;;;11.40;7.57;;;14.50;99.90;;;;;;5052369;28;20041;-64
2023/08/27 06:53:21;;;;;;;9.88;7.30;;;14.50;99.90;;;;;;5018909;28;20124;-65
2023/08/27 06:55:47;;;;;;;12.95;8.43;;;14.50;99.90;;;;;;5035706;28;20092;-65
2023/08/27 06:58:13;;;;;;;10.85;8.60;;;14.40;99.90;;;;;;5035892;28;20049;-70
2023/08/27 07:00:44;;;;;;;12.50;8.85;;;14.40;99.90;;;;;;5019939;28;20394;-70
2023/08/27 07:03:13;;;;;;;11.43;8.03;;;14.40;99.90;;;;;;5003785;28;20049;-70
2023/08/27 07:05:39;;;;;;;16.00;9.45;;;14.40;99.90;;;;;;5052781;28;20041;-69
2023/08/27 07:08:05;;;;;;;10.77;8.43;;;14.30;99.90;;;;;;5035578;28;20037;-69
2023/08/27 07:10:31;;;;;;;11.23;8.30;;;14.30;99.90;;;;;;5019056;28;20076;-68
2023/08/27 07:12:57;;;;;;;11.00;7.70;;;14.30;99.90;;;;;;5002904;28;20068;-70
2023/08/27 07:15:23;;;;;;;10.10;7.20;;;14.30;99.90;;;;;;5035520;28;20557;-69
2023/08/27 07:17:49;;;;;;;8.63;6.30;;;14.30;99.90;;;;;;5019214;28;20041;-64
2023/08/27 07:20:15;;;;;;;10.40;6.30;;;14.30;99.90;;;;;;5035334;28;20375;-63
2023/08/27 07:22:40;;;;;;;8.15;5.75;;;14.30;99.90;;;;;;5034986;28;20073;-64
2023/08/27 07:25:12;;;;;;;8.77;5.53;;;14.30;99.90;;;;;;5035323;28;20044;-63
2023/08/27 07:27:38;;;;;;;9.48;6.40;;;14.30;99.90;;;;;;5034998;28;20124;-64
2023/08/27 07:30:05;;;;;;;8.55;6.80;;;14.30;99.90;;;;;;5034881;28;20120;-64
2023/08/27 07:32:40;;;;;;;9.07;5.28;;;14.30;99.90;;;;;;5021568;28;20044;-64
2023/08/27 07:35:07;;;;;;;8.30;5.07;;;14.30;99.90;;;;;;5034813;28;20041;-64
2023/08/27 07:37:33;;;;;;;7.78;5.53;;;14.40;99.90;;;;;;5034949;28;20040;-62
2023/08/27 07:39:59;;;;;;;8.63;5.93;;;14.50;99.90;;;;;;5052497;28;20068;-63
2023/08/27 07:42:24;;;;;;;9.60;6.10;;;14.70;99.90;;;;;;5052408;28;20086;-64
2023/08/27 07:44:50;;;;;;;8.20;5.18;;;15.00;99.90;;;;;;5052436;28;20067;-63
2023/08/27 07:47:26;;;;;;;8.20;3.97;;;15.20;99.90;;;;;;5002259;28;20486;-64
2023/08/27 07:50:01;;;;;;;8.52;4.00;;;15.30;99.90;;;;;;5016138;28;20042;-64
2023/08/27 07:52:27;;;;;;;6.30;4.07;;;15.40;99.90;;;;;;5034852;28;20045;-64
2023/08/27 07:54:52;;;;;;;5.78;2.65;;;15.80;99.90;;;;;;5034534;28;20052;-64
2023/08/27 07:57:18;;;;;;;5.45;2.75;;;16.00;99.90;;;;;;5034654;28;20060;-63
2023/08/27 07:59:44;;;;;;;5.75;2.40;;;16.40;99.90;;;;;;5034478;28;20051;-63
2023/08/27 08:02:16;;;;;;;4.70;2.30;;;16.60;99.90;;;;;;5034768;28;20488;-64
2023/08/27 08:04:42;;;;;;;6.30;2.20;;;16.70;99.90;;;;;;5018636;28;20120;-63
2023/08/27 08:07:09;;;;;;;5.03;2.35;;;16.80;99.90;;;;;;5051167;28;20445;-63
2023/08/27 08:09:35;;;;;;;4.53;1.90;;;17.00;99.90;;;;;;5015127;28;20054;-64
2023/08/27 08:12:01;;;;;;;4.63;1.92;;;17.10;99.90;;;;;;5017520;28;20181;-63
2023/08/27 08:14:27;;;;;;;4.43;2.00;;;17.20;99.90;;;;;;5034771;28;20072;-64
2023/08/27 08:16:53;;;;;;;4.60;1.80;;;17.30;99.90;;;;;;5035166;28;20053;-64
2023/08/27 08:19:22;;;;;;;4.53;1.98;;;17.30;99.90;;;;;;5035001;28;20474;-64
2023/08/27 08:21:48;;;;;;;3.60;1.50;;;17.40;99.90;;;;;;5036015;28;20037;-63
2023/08/27 08:24:14;;;;;;;5.13;1.92;;;17.50;99.90;;;;;;5018250;28;20041;-64
2023/08/27 08:26:40;;;;;;;4.97;1.98;;;17.70;99.90;;;;;;5034859;28;20402;-62
2023/08/27 08:29:05;;;;;;;4.22;1.65;;;17.90;99.90;;;;;;5034484;28;20048;-63
2023/08/27 08:31:31;;;;;;;4.50;1.70;;;18.10;99.90;;;;;;5034455;28;20111;-63
2023/08/27 08:33:57;;;;;;;5.40;1.83;;;18.30;99.90;;;;;;5034597;28;20095;-63
2023/08/27 08:36:23;;;;;;;3.75;1.63;;;18.60;99.90;;;;;;5034321;28;20044;-63
2023/08/27 08:38:49;;;;;;;4.22;1.88;;;18.70;99.90;;;;;;5035426;28;20111;-62
2023/08/27 08:41:19;;;;;;;4.93;1.70;;;18.90;99.90;;;;;;5034188;28;20037;-64
2023/08/27 08:44:04;;;;;;;4.75;1.77;;;19.00;99.90;;;;;;5033980;28;20472;-64
2023/08/27 08:46:35;;;;;;;4.28;1.80;;;19.20;99.90;;;;;;5034080;28;20084;-64
2023/08/27 08:49:03;;;;;;;5.47;1.90;;;19.20;99.90;;;;;;5034137;28;20042;-64
2023/08/27 08:51:32;;;;;;;5.32;1.77;;;19.30;99.90;;;;;;5034309;28;20041;-64
2023/08/27 08:54:02;;;;;;;6.63;1.88;;;19.60;99.90;;;;;;5033947;28;20068;-64
2023/08/27 08:56:46;;;;;;;4.70;1.92;;;19.70;99.90;;;;;;5017726;28;20041;-64
2023/08/27 08:59:14;;;;;;;5.53;1.90;;;19.80;99.90;;;;;;5033950;28;20047;-65
2023/08/27 09:01:41;;;;;;;5.80;2.38;;;19.90;99.90;;;;;;5033880;28;20500;-64
2023/08/27 09:04:08;;;;;;;4.80;2.40;;;19.80;99.90;;;;;;5035017;28;20042;-64
2023/08/27 09:06:37;;;;;;;5.28;2.30;;;19.90;99.90;;;;;;5035169;28;20172;-63
2023/08/27 09:09:04;;;;;;;6.35;2.40;;;19.90;99.90;;;;;;5033381;28;20049;-64
2023/08/27 09:11:31;;;;;;;5.72;2.60;;;20.10;99.90;;;;;;5035220;28;20050;-64
2023/08/27 09:13:59;;;;;;;5.53;2.53;;;20.30;99.90;;;;;;5033673;28;20048;-64
2023/08/27 09:16:27;;;;;;;5.75;2.70;;;20.40;99.90;;;;;;5033667;28;20042;-64
2023/08/27 09:18:56;;;;;;;5.45;2.50;;;20.60;99.90;;;;;;5001090;28;20044;-65
2023/08/27 09:21:22;;;;;;;7.45;2.75;;;20.70;99.90;;;;;;5033484;28;20064;-65
2023/08/27 09:23:56;;;;;;;5.90;2.70;;;20.80;99.90;;;;;;5035113;28;20038;-64
2023/08/27 09:26:22;;;;;;;5.80;2.47;;;20.90;99.90;;;;;;5050279;28;20041;-64
2023/08/27 09:28:51;;;;;;;6.80;2.30;;;20.90;99.90;;;;;;5034487;28;20565;-64
2023/08/27 09:31:42;;;;;;;5.85;2.50;;;21.00;99.90;;;;;;5017490;28;20158;-64
2023/08/27 09:34:13;;;;;;;5.68;2.45;;;21.10;99.90;;;;;;5033400;28;20049;-64
2023/08/27 09:36:39;;;;;;;5.57;2.30;;;21.40;99.90;;;;;;5033272;28;20068;-64
2023/08/27 09:39:10;;;;;;;5.85;2.42;;;21.50;99.90;;;;;;5034271;28;20034;-64
2023/08/27 09:41:37;;;;;;;5.88;2.30;;;21.60;99.90;;;;;;5050103;28;20030;-63
2023/08/27 09:44:05;;;;;;;6.40;2.55;;;21.60;99.90;;;;;;5033325;28;20520;-70
2023/08/27 09:46:30;;;;;;;7.43;2.90;;;21.50;99.90;;;;;;5033389;28;20486;-71
2023/08/27 09:49:01;;;;;;;5.80;2.65;;;21.50;99.90;;;;;;5033458;28;20057;-71
2023/08/27 09:51:30;;;;;;;5.07;3.03;;;21.30;99.90;;;;;;5033238;28;20046;-71
2023/08/27 09:53:57;;;;;;;7.22;2.88;;;21.30;99.90;;;;;;5033256;28;20033;-71
2023/08/27 09:56:27;;;;;;;6.60;3.13;;;21.30;99.90;;;;;;5034832;28;20041;-71
2023/08/27 09:59:05;;;;;;;5.93;2.92;;;21.40;99.90;;;;;;5033145;28;20116;-69
2023/08/27 10:01:37;;;;;;;7.03;2.95;;;21.30;99.90;;;;;;5033176;28;20038;-71
2023/08/27 10:04:11;;;;;;;6.43;2.80;;;21.30;99.90;;;;;;5032852;28;20084;-71
2023/08/27 10:06:38;;;;;;;5.43;2.15;;;21.20;99.90;;;;;;5032618;28;20046;-72
2023/08/27 10:09:04;;;;;;;5.75;2.45;;;21.20;99.90;;;;;;5032718;28;20045;-71
2023/08/27 10:11:33;;;;;;;5.82;2.67;;;21.20;99.90;;;;;;5034183;28;20080;-71
2023/08/27 10:13:59;;;;;;;6.00;2.40;;;21.00;99.90;;;;;;5032811;28;20115;-70
2023/08/27 10:16:36;;;;;;;5.90;2.30;;;20.90;99.90;;;;;;5033353;28;20033;-71
2023/08/27 10:19:04;;;;;;;6.80;2.63;;;20.80;99.90;;;;;;5033249;28;20037;-71
2023/08/27 10:21:30;;;;;;;5.85;2.70;;;20.50;99.90;;;;;;5034282;28;20052;-72
2023/08/27 10:23:57;;;;;;;5.25;2.58;;;20.30;99.90;;;;;;5032713;28;20076;-72
2023/08/27 10:26:24;;;;;;;7.13;3.03;;;20.40;99.90;;;;;;5032906;28;20451;-71
2023/08/27 10:28:54;;;;;;;6.13;2.92;;;20.70;99.90;;;;;;5032828;28;20037;-72
2023/08/27 10:31:20;;;;;;;6.38;2.95;;;21.00;99.90;;;;;;5016434;28;20037;-72
2023/08/27 10:33:46;;;;;;;6.60;2.67;;;21.20;99.90;;;;;;5031713;28;20064;-69
2023/08/27 10:36:20;;;;;;;6.60;2.40;;;21.00;99.90;;;;;;5032720;28;20485;-70
2023/08/27 10:38:48;;;;;;;5.57;2.70;;;20.80;99.90;;;;;;5032939;28;20489;-70
2023/08/27 10:41:19;;;;;;;6.43;2.28;;;20.60;99.90;;;;;;5034100;28;20159;-71
2023/08/27 10:43:45;;;;;;;6.50;2.53;;;20.40;99.90;;;;;;5032342;28;20041;-63
2023/08/27 10:46:14;;;;;;;5.90;2.72;;;20.30;99.90;;;;;;5033127;28;20548;-64
2023/08/27 10:48:40;;;;;;;5.50;2.60;;;20.30;99.90;;;;;;5034188;28;20037;-72
2023/08/27 10:51:14;;;;;;;5.95;2.20;;;20.40;99.90;;;;;;5016252;28;20038;-71
2023/08/27 10:53:50;;;;;;;5.43;2.08;;;20.50;99.90;;;;;;5033752;28;20049;-71
2023/08/27 10:56:26;;;;;;;5.18;2.15;;;20.80;99.90;;;;;;5032242;28;20037;-71
2023/08/27 10:58:52;;;;;;;5.45;2.28;;;21.20;99.90;;;;;;5033741;28;20049;-71
2023/08/27 11:01:20;;;;;;;5.88;2.25;;;21.50;99.90;;;;;;5032634;28;20041;-72
2023/08/27 11:04:04;;;;;;;6.10;2.30;;;21.60;99.90;;;;;;5033435;28;20037;-71
2023/08/27 11:06:48;;;;;;;5.82;2.08;;;21.40;99.90;;;;;;5049141;28;20169;-71
2023/08/27 11:09:25;;;;;;;6.72;2.20;;;21.20;99.90;;;;;;5015438;28;20046;-71
2023/08/27 11:12:03;;;;;;;6.13;1.80;;;21.10;99.90;;;;;;5032278;28;20057;-72
2023/08/27 11:14:39;;;;;;;5.63;2.05;;;21.40;99.90;;;;;;5031595;28;20545;-72
2023/08/27 11:17:05;;;;;;;5.35;1.88;;;21.70;99.90;;;;;;5032052;28;20073;-71
2023/08/27 11:19:34;;;;;;;5.68;2.00;;;22.10;99.90;;;;;;5031848;28;20077;-71
2023/08/27 11:22:13;;;;;;;6.38;2.10;;;22.30;99.90;;;;;;5032184;28;20041;-71
2023/08/27 11:24:43;;;;;;;6.50;1.98;;;22.50;99.90;;;;;;5016931;28;20573;-71
2023/08/27 11:27:10;;;;;;;5.40;2.00;;;22.60;99.90;;;;;;5033618;28;20065;-70
2023/08/27 11:29:41;;;;;;;6.22;2.30;;;22.50;99.90;;;;;;5048451;28;20121;-71
2023/08/27 11:32:08;;;;;;;5.05;1.88;;;22.30;99.90;;;;;;5031986;28;20044;-72
2023/08/27 11:34:35;;;;;;;4.70;1.90;;;22.40;99.90;;;;;;5032102;28;20050;-70
2023/08/27 11:37:03;;;;;;;5.78;2.00;;;22.20;99.90;;;;;;5032110;28;20449;-71
2023/08/27 11:39:29;;;;;;;5.20;2.10;;;22.00;99.90;;;;;;5031775;28;20077;-72
2023/08/27 11:41:59;;;;;;;5.78;1.95;;;21.80;99.90;;;;;;5031838;28;20077;-72
2023/08/27 11:44:31;;;;;;;5.70;1.90;;;21.60;99.90;;;;;;5017741;28;20046;-72
2023/08/27 11:47:05;;;;;;;5.18;1.90;;;21.40;99.90;;;;;;5019174;28;20509;-70
2023/08/27 11:49:32;;;;;;;5.63;2.15;;;21.40;99.90;;;;;;5035493;28;20041;-70
2023/08/27 11:52:00;;;;;;;5.75;2.10;;;21.60;99.90;;;;;;5035428;28;20144;-70
2023/08/27 11:54:34;;;;;;;5.22;2.10;;;21.80;99.90;;;;;;5018988;28;20045;-71
2023/08/27 11:57:04;;;;;;;6.97;2.13;;;21.90;99.90;;;;;;5019262;28;20045;-61
2023/08/27 11:59:33;;;;;;;5.13;2.08;;;21.90;99.90;;;;;;5036566;28;20048;-63
2023/08/27 12:01:59;;;;;;;5.78;1.92;;;21.90;99.90;;;;;;5019118;28;20076;-64
2023/08/27 12:04:29;;;;;;;4.72;2.00;;;21.90;99.90;;;;;;5035162;28;20084;-63
2023/08/27 12:07:01;;;;;;;6.28;2.03;;;21.80;99.90;;;;;;5035277;28;20535;-64
2023/08/27 12:09:31;;;;;;;6.22;1.90;;;21.90;99.90;;;;;;5034616;28;20049;-63
2023/08/27 12:12:03;;;;;;;5.72;1.95;;;21.60;99.90;;;;;;5035194;28;20045;-64
2023/08/27 12:14:29;;;;;;;;;;;21.40;99.90;;;;;;5035182;28;20084;-64
2023/08/27 12:17:03;;;;;;;5.65;1.80;;;21.20;99.90;;;;;;5034658;28;19924;-63
2023/08/27 12:19:29;;;;;;;5.93;2.30;;;20.90;99.90;;;;;;5051276;28;20112;-64
2023/08/27 12:21:58;;;;;;;6.38;2.10;;;20.80;99.90;;;;;;5035693;28;20044;-65
2023/08/27 12:24:42;;;;;;;5.93;1.88;;;20.40;99.90;;;;;;5035793;28;20042;-64
2023/08/27 12:27:19;;;;;;;5.97;2.00;;;20.10;99.90;;;;;;5034694;28;20041;-65
2023/08/27 12:29:46;;;;;;;5.35;1.70;;;19.80;99.90;;;;;;5019713;28;20045;-63
2023/08/27 12:32:19;;;;;;;4.65;1.75;;;19.50;99.90;;;;;;5035858;28;20048;-64
2023/08/27 12:34:48;;;;;;;4.47;2.00;;;19.10;99.90;;;;;;5034933;28;20095;-63
2023/08/27 12:37:17;;;;;;;11.40;2.60;;;18.70;99.90;;;;;;5034293;28;20049;-64
2023/08/27 12:39:47;;;;;;;7.82;2.63;;;18.50;99.90;;;;;;5002376;28;20033;-65
2023/08/27 12:42:14;;;;;;;5.55;2.70;;;18.10;99.90;;;;;;5034126;28;20080;-64
2023/08/27 12:44:41;;;;;;;4.82;2.28;;;18.00;99.90;;;;;;5018010;28;20037;-64
2023/08/27 12:47:08;;;;;;;5.10;2.45;;;17.80;99.90;;;;;;5034110;28;20050;-64
2023/08/27 12:49:34;;;;;;;5.78;2.70;;;17.70;99.90;;;;;;5017636;28;20033;-64